Mirgab Vi — ZGAO4 — position and weather

sailwx.info

Track history (hours):
 
Tides and Currents Weather Stations Pressure Air Temp Water Temp Dewpoint Dewpoint Depression Visibility Wind Speed Wind Dir Waves Ship Positions

Mirgab Vi

Last reported at 2017-Jul-23 22:30 UTC. Time now 2017-Jul-23 22:42 UTC.
Position N 43°32' E 007°02'.

Length 49 m; draft 2.9 m.

Type: Pleasure craft. MMSI: 319394000.

Date/timePositionNaut miles runAvg speedWind from/ knotsBaromVisibWave heightAir tempDewpointWater temp
2017-Jul-23 22:30N 43°32' E 007°02'0 0.0
2017-Jul-23 22:00N 43°32' E 007°02'0 0.0
2017-Jul-23 21:27N 43°32' E 007°02'0 0.0
2017-Jul-23 20:54N 43°32' E 007°02'0 0.0
2017-Jul-23 20:24N 43°32' E 007°02'0 0.0
2017-Jul-23 20:00N 43°32' E 007°02'0 0.0
2017-Jul-23 19:27N 43°32' E 007°02'0 0.0
2017-Jul-23 19:00N 43°32' E 007°02'0 0.0
2017-Jul-23 18:27N 43°32' E 007°02'0 0.0
2017-Jul-23 18:00N 43°32' E 007°02'0 0.0
2017-Jul-23 17:30N 43°32' E 007°02'0 0.0
2017-Jul-23 17:00N 43°32' E 007°02'0 0.0
2017-Jul-23 16:30N 43°32' E 007°02'0 0.0
2017-Jul-23 16:00N 43°32' E 007°02'0 0.0
2017-Jul-23 15:30N 43°32' E 007°02'0 0.0
2017-Jul-23 15:00N 43°32' E 007°02'0 0.0
2017-Jul-23 14:30N 43°32' E 007°02'0 0.0
2017-Jul-23 14:00N 43°32' E 007°02'0 0.0
2017-Jul-23 13:30N 43°32' E 007°02'0 0.0
2017-Jul-23 13:00N 43°32' E 007°02'1 2.7
2017-Jul-23 12:30N 43°31' E 007°01'1 1.4
2017-Jul-23 12:00N 43°31' E 007°02'0 0.4
2017-Jul-23 11:30N 43°31' E 007°02'0 0.0
2017-Jul-23 10:53N 43°31' E 007°02'0 0.0
2017-Jul-23 10:23N 43°31' E 007°02'0 0.0
2017-Jul-23 09:59N 43°31' E 007°02'0 0.0
2017-Jul-23 09:29N 43°31' E 007°02'0 0.7
2017-Jul-23 09:00N 43°31' E 007°02'3 0.2
2017-Jul-22 15:30N 43°33' E 007°05'18 0.4
2017-Jul-20 18:55N 43°44' E 007°25'0 0.0
2017-Jul-20 18:25N 43°44' E 007°25'0 0.0
2017-Jul-20 17:55N 43°44' E 007°25'0 0.0
2017-Jul-20 15:59N 43°44' E 007°25'0 0.4
2017-Jul-20 15:28N 43°44' E 007°26'3 6.2
2017-Jul-20 15:00N 43°45' E 007°29'0 0.1
2017-Jul-20 14:00N 43°45' E 007°29'0 0.0
2017-Jul-20 13:30N 43°45' E 007°29'3 0.4
2017-Jul-20 06:36N 43°44' E 007°25'0 0.0
2017-Jul-20 06:29N 43°44' E 007°25'0 0.0
2017-Jul-20 01:30N 43°44' E 007°25'0 0.0
2017-Jul-20 00:36N 43°44' E 007°25'0 0.0
2017-Jul-19 23:06N 43°44' E 007°25'0 0.0
2017-Jul-19 22:48N 43°44' E 007°25'0 0.0
2017-Jul-19 22:24N 43°44' E 007°25'0 0.0
2017-Jul-19 21:54N 43°44' E 007°25'0 0.0
2017-Jul-19 21:24N 43°44' E 007°25'0 0.0
2017-Jul-19 19:00N 43°44' E 007°25'0 0.0
2017-Jul-19 15:42N 43°44' E 007°25'0 0.0
2017-Jul-19 15:18N 43°44' E 007°25'0 0.0
2017-Jul-19 14:53N 43°44' E 007°25'0 0.0
2017-Jul-19 14:30N 43°44' E 007°25'1 1.0
2017-Jul-19 13:58N 43°44' E 007°26'6 1.2
2017-Jul-19 08:58N 43°41' E 007°19'511.8
2017-Jul-19 08:30N 43°37' E 007°14'611.7
2017-Jul-19 08:00N 43°33' E 007°09'611.3
2017-Jul-19 07:30N 43°29' E 007°03'3 6.1
2017-Jul-19 07:00N 43°32' E 007°02'0 0.0
2017-Jul-19 06:30N 43°32' E 007°02'0 0.0
2017-Jul-19 06:00N 43°32' E 007°02'0 0.0
2017-Jul-19 05:30N 43°32' E 007°02'0 0.0
2017-Jul-19 05:00N 43°32' E 007°02'0 0.0
2017-Jul-19 04:30N 43°32' E 007°02'0 0.0
2017-Jul-19 04:00N 43°32' E 007°02'0 0.0
2017-Jul-19 03:30N 43°32' E 007°02'0 0.0
2017-Jul-19 03:00N 43°32' E 007°02'0 0.0
2017-Jul-19 02:30N 43°32' E 007°02'0 0.0
2017-Jul-19 02:00N 43°32' E 007°02'0 0.0
2017-Jul-19 01:30N 43°32' E 007°02'0 0.0
2017-Jul-19 01:00N 43°32' E 007°02'0 0.0
2017-Jul-19 00:30N 43°32' E 007°02'0 0.0
2017-Jul-18 23:48N 43°32' E 007°02'0 0.0
2017-Jul-18 23:30N 43°32' E 007°02'0 0.0
2017-Jul-18 23:00N 43°32' E 007°02'0 0.0
2017-Jul-18 22:30N 43°32' E 007°02'0 0.0
2017-Jul-18 21:57N 43°32' E 007°02'0 0.0
2017-Jul-18 21:30N 43°32' E 007°02'0 0.0
2017-Jul-18 20:54N 43°32' E 007°02'0 0.0
2017-Jul-18 20:27N 43°32' E 007°02'0 0.0
2017-Jul-18 19:54N 43°32' E 007°02'0 0.0
2017-Jul-18 19:30N 43°32' E 007°02'0 0.0
2017-Jul-18 18:57N 43°32' E 007°02'0 0.0
2017-Jul-18 18:27N 43°32' E 007°02'0 0.0
2017-Jul-18 18:00N 43°32' E 007°02'0 0.0
2017-Jul-18 17:30N 43°32' E 007°02'0 0.0
2017-Jul-18 16:57N 43°32' E 007°02'0 0.0
2017-Jul-18 16:30N 43°32' E 007°02'0 0.0
2017-Jul-18 16:00N 43°32' E 007°02'0 0.2
2017-Jul-18 15:30N 43°32' E 007°02'2 3.3
2017-Jul-18 15:00N 43°31' E 007°02'0 0.4
2017-Jul-18 14:00N 43°31' E 007°02'0 0.0
2017-Jul-18 13:30N 43°31' E 007°02'0 0.0
2017-Jul-18 12:57N 43°31' E 007°02'0 0.0
2017-Jul-18 12:27N 43°31' E 007°02'0 0.0
2017-Jul-18 12:00N 43°31' E 007°02'0 0.0
2017-Jul-18 11:30N 43°31' E 007°02'0 0.0
2017-Jul-18 11:00N 43°31' E 007°02'0 0.0
2017-Jul-18 10:30N 43°31' E 007°02'0 0.0
2017-Jul-18 10:00N 43°31' E 007°02'2 3.5
2017-Jul-18 09:30N 43°32' E 007°02'0 0.3
2017-Jul-18 09:00N 43°32' E 007°02'0 0.0
2017-Jul-18 08:30N 43°32' E 007°02'0 0.0
2017-Jul-18 08:00N 43°32' E 007°02'0 0.0
2017-Jul-18 07:30N 43°32' E 007°02'0 0.0
2017-Jul-18 07:00N 43°32' E 007°02'0 0.0
2017-Jul-18 06:26N 43°32' E 007°02'0 0.0
2017-Jul-18 05:56N 43°32' E 007°02'0 0.0
2017-Jul-18 05:29N 43°32' E 007°02'0 0.0
2017-Jul-18 04:59N 43°32' E 007°02'0 0.0
2017-Jul-18 04:26N 43°32' E 007°02'0 0.0
2017-Jul-18 03:56N 43°32' E 007°02'0 0.0
2017-Jul-18 03:29N 43°32' E 007°02'0 0.0
2017-Jul-18 02:59N 43°32' E 007°02'0 0.0
2017-Jul-18 02:29N 43°32' E 007°02'0 0.0
2017-Jul-18 01:59N 43°32' E 007°02'0 0.0
2017-Jul-18 01:29N 43°32' E 007°02'0 0.0
2017-Jul-18 00:59N 43°32' E 007°02'0 0.0
2017-Jul-18 00:29N 43°32' E 007°02'0 0.0
2017-Jul-17 23:59N 43°32' E 007°02'0 0.0
2017-Jul-17 23:29N 43°32' E 007°02'0 0.0
2017-Jul-17 22:59N 43°32' E 007°02'0 0.0
2017-Jul-17 22:29N 43°32' E 007°02'0 0.0
2017-Jul-17 21:59N 43°32' E 007°02'0 0.0
2017-Jul-17 21:29N 43°32' E 007°02'0 0.0
2017-Jul-17 20:59N 43°32' E 007°02'0 0.0
2017-Jul-17 20:26N 43°32' E 007°02'0 0.0
2017-Jul-17 19:59N 43°32' E 007°02'0 0.0
2017-Jul-17 19:29N 43°32' E 007°02'0 0.0
2017-Jul-17 18:59N 43°32' E 007°02'0 0.0
2017-Jul-17 18:29N 43°32' E 007°02'0 0.0
2017-Jul-17 17:53N 43°32' E 007°02'0 0.0
2017-Jul-17 17:26N 43°32' E 007°02'0 0.0
2017-Jul-17 16:59N 43°32' E 007°02'0 0.0
2017-Jul-17 16:26N 43°32' E 007°02'0 0.5
2017-Jul-17 16:00N 43°32' E 007°02'2 2.9
2017-Jul-17 15:27N 43°31' E 007°02'0 0.0
2017-Jul-17 15:00N 43°31' E 007°02'0 0.0
2017-Jul-17 14:27N 43°31' E 007°02'0 0.0
2017-Jul-17 13:57N 43°31' E 007°02'0 0.0
2017-Jul-17 13:30N 43°31' E 007°02'4 8.6
2017-Jul-17 13:01N 43°28' E 006°58'611.7
2017-Jul-17 12:28N 43°23' E 006°52'  
2017-Jul-14 07:44N 43°27' E 006°57'311.9
2017-Jul-14 07:30N 43°29' E 006°59'4 7.2
2017-Jul-14 07:00N 43°32' E 007°02'0 0.0
2017-Jul-14 06:30N 43°32' E 007°02'0 0.0
2017-Jul-14 06:00N 43°32' E 007°02'0 0.0
2017-Jul-14 05:30N 43°32' E 007°02'0 0.0
2017-Jul-14 05:00N 43°32' E 007°02'0 0.0
2017-Jul-14 04:30N 43°32' E 007°02'0 0.0
2017-Jul-14 04:00N 43°32' E 007°02'0 0.0
2017-Jul-14 03:30N 43°32' E 007°02'0 0.0
2017-Jul-14 03:00N 43°32' E 007°02'0 0.0
2017-Jul-14 02:30N 43°32' E 007°02'0 0.0
2017-Jul-14 02:00N 43°32' E 007°02'0 0.0
2017-Jul-14 01:30N 43°32' E 007°02'0 0.0
2017-Jul-14 01:00N 43°32' E 007°02'0 0.0
2017-Jul-14 00:30N 43°32' E 007°02'0 0.0
2017-Jul-13 23:57N 43°32' E 007°02'0 0.0
2017-Jul-13 23:30N 43°32' E 007°02'0 0.0
2017-Jul-13 23:00N 43°32' E 007°02'  
Track history (hours):
 
Tides and Currents Weather Stations Pressure Air Temp Water Temp Dewpoint Dewpoint Depression Visibility Wind Speed Wind Dir Waves Ship Positions

Mirgab Vi

Last reported at 2017-Jul-23 22:30 UTC. Time now 2017-Jul-23 22:42 UTC.
Position N 43°32' E 007°02'.

Length 49 m; draft 2.9 m.

Type: Pleasure craft. MMSI: 319394000.

Date/timePositionNaut miles runAvg speedWind from/ knotsBaromVisibWave heightAir tempDewpointWater temp
2017-Jul-23 22:30N 43°32' E 007°02'0 0.0
2017-Jul-23 22:00N 43°32' E 007°02'0 0.0
2017-Jul-23 21:27N 43°32' E 007°02'0 0.0
2017-Jul-23 20:54N 43°32' E 007°02'0 0.0
2017-Jul-23 20:24N 43°32' E 007°02'0 0.0
2017-Jul-23 20:00N 43°32' E 007°02'0 0.0
2017-Jul-23 19:27N 43°32' E 007°02'0 0.0
2017-Jul-23 19:00N 43°32' E 007°02'0 0.0
2017-Jul-23 18:27N 43°32' E 007°02'0 0.0
2017-Jul-23 18:00N 43°32' E 007°02'0 0.0
2017-Jul-23 17:30N 43°32' E 007°02'0 0.0
2017-Jul-23 17:00N 43°32' E 007°02'0 0.0
2017-Jul-23 16:30N 43°32' E 007°02'0 0.0
2017-Jul-23 16:00N 43°32' E 007°02'0 0.0
2017-Jul-23 15:30N 43°32' E 007°02'0 0.0
2017-Jul-23 15:00N 43°32' E 007°02'0 0.0
2017-Jul-23 14:30N 43°32' E 007°02'0 0.0
2017-Jul-23 14:00N 43°32' E 007°02'0 0.0
2017-Jul-23 13:30N 43°32' E 007°02'0 0.0
2017-Jul-23 13:00N 43°32' E 007°02'1 2.7
2017-Jul-23 12:30N 43°31' E 007°01'1 1.4
2017-Jul-23 12:00N 43°31' E 007°02'0 0.4
2017-Jul-23 11:30N 43°31' E 007°02'0 0.0
2017-Jul-23 10:53N 43°31' E 007°02'0 0.0
2017-Jul-23 10:23N 43°31' E 007°02'0 0.0
2017-Jul-23 09:59N 43°31' E 007°02'0 0.0
2017-Jul-23 09:29N 43°31' E 007°02'0 0.7
2017-Jul-23 09:00N 43°31' E 007°02'3 0.2
2017-Jul-22 15:30N 43°33' E 007°05'18 0.4
2017-Jul-20 18:55N 43°44' E 007°25'0 0.0
2017-Jul-20 18:25N 43°44' E 007°25'0 0.0
2017-Jul-20 17:55N 43°44' E 007°25'0 0.0
2017-Jul-20 15:59N 43°44' E 007°25'0 0.4
2017-Jul-20 15:28N 43°44' E 007°26'3 6.2
2017-Jul-20 15:00N 43°45' E 007°29'0 0.1
2017-Jul-20 14:00N 43°45' E 007°29'0 0.0
2017-Jul-20 13:30N 43°45' E 007°29'3 0.4
2017-Jul-20 06:36N 43°44' E 007°25'0 0.0
2017-Jul-20 06:29N 43°44' E 007°25'0 0.0
2017-Jul-20 01:30N 43°44' E 007°25'0 0.0
2017-Jul-20 00:36N 43°44' E 007°25'0 0.0
2017-Jul-19 23:06N 43°44' E 007°25'0 0.0
2017-Jul-19 22:48N 43°44' E 007°25'0 0.0
2017-Jul-19 22:24N 43°44' E 007°25'0 0.0
2017-Jul-19 21:54N 43°44' E 007°25'0 0.0
2017-Jul-19 21:24N 43°44' E 007°25'0 0.0
2017-Jul-19 19:00N 43°44' E 007°25'0 0.0
2017-Jul-19 15:42N 43°44' E 007°25'0 0.0
2017-Jul-19 15:18N 43°44' E 007°25'0 0.0
2017-Jul-19 14:53N 43°44' E 007°25'0 0.0
2017-Jul-19 14:30N 43°44' E 007°25'1 1.0
2017-Jul-19 13:58N 43°44' E 007°26'6 1.2
2017-Jul-19 08:58N 43°41' E 007°19'511.8
2017-Jul-19 08:30N 43°37' E 007°14'611.7
2017-Jul-19 08:00N 43°33' E 007°09'611.3
2017-Jul-19 07:30N 43°29' E 007°03'3 6.1
2017-Jul-19 07:00N 43°32' E 007°02'0 0.0
2017-Jul-19 06:30N 43°32' E 007°02'0 0.0
2017-Jul-19 06:00N 43°32' E 007°02'0 0.0
2017-Jul-19 05:30N 43°32' E 007°02'0 0.0
2017-Jul-19 05:00N 43°32' E 007°02'0 0.0
2017-Jul-19 04:30N 43°32' E 007°02'0 0.0
2017-Jul-19 04:00N 43°32' E 007°02'0 0.0
2017-Jul-19 03:30N 43°32' E 007°02'0 0.0
2017-Jul-19 03:00N 43°32' E 007°02'0 0.0
2017-Jul-19 02:30N 43°32' E 007°02'0 0.0
2017-Jul-19 02:00N 43°32' E 007°02'0 0.0
2017-Jul-19 01:30N 43°32' E 007°02'0 0.0
2017-Jul-19 01:00N 43°32' E 007°02'0 0.0
2017-Jul-19 00:30N 43°32' E 007°02'0 0.0
2017-Jul-18 23:48N 43°32' E 007°02'0 0.0
2017-Jul-18 23:30N 43°32' E 007°02'0 0.0
2017-Jul-18 23:00N 43°32' E 007°02'0 0.0
2017-Jul-18 22:30N 43°32' E 007°02'0 0.0
2017-Jul-18 21:57N 43°32' E 007°02'0 0.0
2017-Jul-18 21:30N 43°32' E 007°02'0 0.0
2017-Jul-18 20:54N 43°32' E 007°02'0 0.0
2017-Jul-18 20:27N 43°32' E 007°02'0 0.0
2017-Jul-18 19:54N 43°32' E 007°02'0 0.0
2017-Jul-18 19:30N 43°32' E 007°02'0 0.0
2017-Jul-18 18:57N 43°32' E 007°02'0 0.0
2017-Jul-18 18:27N 43°32' E 007°02'0 0.0
2017-Jul-18 18:00N 43°32' E 007°02'0 0.0
2017-Jul-18 17:30N 43°32' E 007°02'0 0.0
2017-Jul-18 16:57N 43°32' E 007°02'0 0.0
2017-Jul-18 16:30N 43°32' E 007°02'0 0.0
2017-Jul-18 16:00N 43°32' E 007°02'0 0.2
2017-Jul-18 15:30N 43°32' E 007°02'2 3.3
2017-Jul-18 15:00N 43°31' E 007°02'0 0.4
2017-Jul-18 14:00N 43°31' E 007°02'0 0.0
2017-Jul-18 13:30N 43°31' E 007°02'0 0.0
2017-Jul-18 12:57N 43°31' E 007°02'0 0.0
2017-Jul-18 12:27N 43°31' E 007°02'0 0.0
2017-Jul-18 12:00N 43°31' E 007°02'0 0.0
2017-Jul-18 11:30N 43°31' E 007°02'0 0.0
2017-Jul-18 11:00N 43°31' E 007°02'0 0.0
2017-Jul-18 10:30N 43°31' E 007°02'0 0.0
2017-Jul-18 10:00N 43°31' E 007°02'2 3.5
2017-Jul-18 09:30N 43°32' E 007°02'0 0.3
2017-Jul-18 09:00N 43°32' E 007°02'0 0.0
2017-Jul-18 08:30N 43°32' E 007°02'0 0.0
2017-Jul-18 08:00N 43°32' E 007°02'0 0.0
2017-Jul-18 07:30N 43°32' E 007°02'0 0.0
2017-Jul-18 07:00N 43°32' E 007°02'0 0.0
2017-Jul-18 06:26N 43°32' E 007°02'0 0.0
2017-Jul-18 05:56N 43°32' E 007°02'0 0.0
2017-Jul-18 05:29N 43°32' E 007°02'0 0.0
2017-Jul-18 04:59N 43°32' E 007°02'0 0.0
2017-Jul-18 04:26N 43°32' E 007°02'0 0.0
2017-Jul-18 03:56N 43°32' E 007°02'0 0.0
2017-Jul-18 03:29N 43°32' E 007°02'0 0.0
2017-Jul-18 02:59N 43°32' E 007°02'0 0.0
2017-Jul-18 02:29N 43°32' E 007°02'0 0.0
2017-Jul-18 01:59N 43°32' E 007°02'0 0.0
2017-Jul-18 01:29N 43°32' E 007°02'0 0.0
2017-Jul-18 00:59N 43°32' E 007°02'0 0.0
2017-Jul-18 00:29N 43°32' E 007°02'0 0.0
2017-Jul-17 23:59N 43°32' E 007°02'0 0.0
2017-Jul-17 23:29N 43°32' E 007°02'0 0.0
2017-Jul-17 22:59N 43°32' E 007°02'0 0.0
2017-Jul-17 22:29N 43°32' E 007°02'0 0.0
2017-Jul-17 21:59N 43°32' E 007°02'0 0.0
2017-Jul-17 21:29N 43°32' E 007°02'0 0.0
2017-Jul-17 20:59N 43°32' E 007°02'0 0.0
2017-Jul-17 20:26N 43°32' E 007°02'0 0.0
2017-Jul-17 19:59N 43°32' E 007°02'0 0.0
2017-Jul-17 19:29N 43°32' E 007°02'0 0.0
2017-Jul-17 18:59N 43°32' E 007°02'0 0.0
2017-Jul-17 18:29N 43°32' E 007°02'0 0.0
2017-Jul-17 17:53N 43°32' E 007°02'0 0.0
2017-Jul-17 17:26N 43°32' E 007°02'0 0.0
2017-Jul-17 16:59N 43°32' E 007°02'0 0.0
2017-Jul-17 16:26N 43°32' E 007°02'0 0.5
2017-Jul-17 16:00N 43°32' E 007°02'2 2.9
2017-Jul-17 15:27N 43°31' E 007°02'0 0.0
2017-Jul-17 15:00N 43°31' E 007°02'0 0.0
2017-Jul-17 14:27N 43°31' E 007°02'0 0.0
2017-Jul-17 13:57N 43°31' E 007°02'0 0.0
2017-Jul-17 13:30N 43°31' E 007°02'4 8.6
2017-Jul-17 13:01N 43°28' E 006°58'611.7
2017-Jul-17 12:28N 43°23' E 006°52'  
2017-Jul-14 07:44N 43°27' E 006°57'311.9
2017-Jul-14 07:30N 43°29' E 006°59'4 7.2
2017-Jul-14 07:00N 43°32' E 007°02'0 0.0
2017-Jul-14 06:30N 43°32' E 007°02'0 0.0
2017-Jul-14 06:00N 43°32' E 007°02'0 0.0
2017-Jul-14 05:30N 43°32' E 007°02'0 0.0
2017-Jul-14 05:00N 43°32' E 007°02'0 0.0
2017-Jul-14 04:30N 43°32' E 007°02'0 0.0
2017-Jul-14 04:00N 43°32' E 007°02'0 0.0
2017-Jul-14 03:30N 43°32' E 007°02'0 0.0
2017-Jul-14 03:00N 43°32' E 007°02'0 0.0
2017-Jul-14 02:30N 43°32' E 007°02'0 0.0
2017-Jul-14 02:00N 43°32' E 007°02'0 0.0
2017-Jul-14 01:30N 43°32' E 007°02'0 0.0
2017-Jul-14 01:00N 43°32' E 007°02'0 0.0
2017-Jul-14 00:30N 43°32' E 007°02'0 0.0
2017-Jul-13 23:57N 43°32' E 007°02'0 0.0
2017-Jul-13 23:30N 43°32' E 007°02'0 0.0
2017-Jul-13 23:00N 43°32' E 007°02'  

Dump ship's entire track history